sensor_id;sensor_type;location;lat;lon;timestamp;P1;durP1;ratioP1;P2;durP2;ratioP2
77571;SDS011;67214;47.454;18.966;2023-05-10T00:00:44;5.00;;;3.15;;
77571;SDS011;67214;47.454;18.966;2023-05-10T00:03:11;5.35;;;3.08;;
77571;SDS011;67214;47.454;18.966;2023-05-10T00:05:39;3.95;;;3.17;;
77571;SDS011;67214;47.454;18.966;2023-05-10T00:08:06;5.28;;;3.77;;
77571;SDS011;67214;47.454;18.966;2023-05-10T00:10:34;5.67;;;3.20;;
77571;SDS011;67214;47.454;18.966;2023-05-10T00:13:03;4.17;;;3.05;;
77571;SDS011;67214;47.454;18.966;2023-05-10T00:15:30;5.53;;;3.77;;
77571;SDS011;67214;47.454;18.966;2023-05-10T00:17:58;4.00;;;3.50;;
77571;SDS011;67214;47.454;18.966;2023-05-10T00:20:25;3.87;;;3.15;;
77571;SDS011;67214;47.454;18.966;2023-05-10T00:22:53;4.10;;;3.50;;
77571;SDS011;67214;47.454;18.966;2023-05-10T00:25:20;4.10;;;3.35;;
77571;SDS011;67214;47.454;18.966;2023-05-10T00:27:48;5.97;;;3.77;;
77571;SDS011;67214;47.454;18.966;2023-05-10T00:30:15;5.83;;;4.08;;
77571;SDS011;67214;47.454;18.966;2023-05-10T00:32:43;6.80;;;4.22;;
77571;SDS011;67214;47.454;18.966;2023-05-10T00:35:10;7.42;;;3.17;;
77571;SDS011;67214;47.454;18.966;2023-05-10T00:37:38;7.92;;;4.55;;
77571;SDS011;67214;47.454;18.966;2023-05-10T00:40:06;7.65;;;4.53;;
77571;SDS011;67214;47.454;18.966;2023-05-10T00:42:34;6.28;;;4.53;;
77571;SDS011;67214;47.454;18.966;2023-05-10T00:45:01;4.78;;;3.70;;
77571;SDS011;67214;47.454;18.966;2023-05-10T00:47:29;5.30;;;4.00;;
77571;SDS011;67214;47.454;18.966;2023-05-10T00:49:58;6.08;;;4.10;;
77571;SDS011;67214;47.454;18.966;2023-05-10T00:52:26;6.80;;;5.00;;
77571;SDS011;67214;47.454;18.966;2023-05-10T00:54:55;5.55;;;4.42;;
77571;SDS011;67214;47.454;18.966;2023-05-10T00:57:24;8.10;;;4.55;;
77571;SDS011;67214;47.454;18.966;2023-05-10T00:59:53;7.08;;;4.60;;
77571;SDS011;67214;47.454;18.966;2023-05-10T01:02:21;5.37;;;4.35;;
77571;SDS011;67214;47.454;18.966;2023-05-10T01:04:48;5.62;;;4.72;;
77571;SDS011;67214;47.454;18.966;2023-05-10T01:07:17;5.33;;;4.42;;
77571;SDS011;67214;47.454;18.966;2023-05-10T01:09:44;6.87;;;5.03;;
77571;SDS011;67214;47.454;18.966;2023-05-10T01:12:12;6.67;;;4.60;;
77571;SDS011;67214;47.454;18.966;2023-05-10T01:14:40;6.53;;;5.17;;
77571;SDS011;67214;47.454;18.966;2023-05-10T01:17:08;7.20;;;4.90;;
77571;SDS011;67214;47.454;18.966;2023-05-10T01:19:37;6.70;;;4.78;;
77571;SDS011;67214;47.454;18.966;2023-05-10T01:39:40;5.62;;;4.83;;
77571;SDS011;67214;47.454;18.966;2023-05-10T01:41:49;6.10;;;5.03;;
77571;SDS011;67214;47.454;18.966;2023-05-10T01:44:29;8.05;;;4.80;;
77571;SDS011;67214;47.454;18.966;2023-05-10T01:47:11;6.58;;;5.10;;
77571;SDS011;67214;47.454;18.966;2023-05-10T01:49:39;5.10;;;4.47;;
77571;SDS011;67214;47.454;18.966;2023-05-10T01:52:21;6.35;;;4.67;;
77571;SDS011;67214;47.454;18.966;2023-05-10T01:55:00;9.20;;;5.08;;
77571;SDS011;67214;47.454;18.966;2023-05-10T01:57:32;7.40;;;4.62;;
77571;SDS011;67214;47.454;18.966;2023-05-10T02:00:02;6.55;;;4.70;;
77571;SDS011;67214;47.454;18.966;2023-05-10T02:02:39;6.75;;;5.03;;
77571;SDS011;67214;47.454;18.966;2023-05-10T02:05:05;7.65;;;4.67;;
77571;SDS011;67214;47.454;18.966;2023-05-10T02:07:38;6.37;;;4.53;;
77571;SDS011;67214;47.454;18.966;2023-05-10T02:10:06;7.08;;;4.75;;
77571;SDS011;67214;47.454;18.966;2023-05-10T02:12:35;6.85;;;4.53;;
77571;SDS011;67214;47.454;18.966;2023-05-10T02:15:05;9.35;;;4.92;;
77571;SDS011;67214;47.454;18.966;2023-05-10T02:17:35;8.43;;;4.50;;
77571;SDS011;67214;47.454;18.966;2023-05-10T02:20:05;8.18;;;4.53;;
77571;SDS011;67214;47.454;18.966;2023-05-10T02:22:35;7.83;;;5.00;;
77571;SDS011;67214;47.454;18.966;2023-05-10T02:25:05;7.62;;;4.70;;
77571;SDS011;67214;47.454;18.966;2023-05-10T02:27:35;9.00;;;4.85;;
77571;SDS011;67214;47.454;18.966;2023-05-10T02:30:05;8.18;;;4.58;;
77571;SDS011;67214;47.454;18.966;2023-05-10T02:32:34;9.85;;;5.10;;
77571;SDS011;67214;47.454;18.966;2023-05-10T02:35:03;8.28;;;4.62;;
77571;SDS011;67214;47.454;18.966;2023-05-10T02:37:31;6.40;;;4.87;;
77571;SDS011;67214;47.454;18.966;2023-05-10T02:40:00;5.65;;;4.12;;
77571;SDS011;67214;47.454;18.966;2023-05-10T02:42:32;6.75;;;4.87;;
77571;SDS011;67214;47.454;18.966;2023-05-10T02:45:02;9.65;;;6.33;;
77571;SDS011;67214;47.454;18.966;2023-05-10T02:47:41;7.15;;;5.70;;
77571;SDS011;67214;47.454;18.966;2023-05-10T02:50:09;9.93;;;6.00;;
77571;SDS011;67214;47.454;18.966;2023-05-10T02:52:42;11.33;;;5.58;;
77571;SDS011;67214;47.454;18.966;2023-05-10T02:55:18;14.00;;;7.05;;
77571;SDS011;67214;47.454;18.966;2023-05-10T02:57:58;11.70;;;6.70;;
77571;SDS011;67214;47.454;18.966;2023-05-10T03:00:27;12.15;;;7.08;;
77571;SDS011;67214;47.454;18.966;2023-05-10T03:02:55;12.55;;;7.15;;
77571;SDS011;67214;47.454;18.966;2023-05-10T03:05:22;10.90;;;5.87;;
77571;SDS011;67214;47.454;18.966;2023-05-10T03:07:50;10.30;;;4.90;;
77571;SDS011;67214;47.454;18.966;2023-05-10T03:10:18;10.10;;;5.95;;
77571;SDS011;67214;47.454;18.966;2023-05-10T03:13:07;9.38;;;4.78;;
77571;SDS011;67214;47.454;18.966;2023-05-10T03:18:17;6.47;;;4.62;;
77571;SDS011;67214;47.454;18.966;2023-05-10T03:20:54;6.40;;;4.85;;
77571;SDS011;67214;47.454;18.966;2023-05-10T03:23:30;6.05;;;4.83;;
77571;SDS011;67214;47.454;18.966;2023-05-10T03:25:58;5.58;;;4.37;;
77571;SDS011;67214;47.454;18.966;2023-05-10T03:28:27;7.80;;;5.03;;
77571;SDS011;67214;47.454;18.966;2023-05-10T03:30:56;7.20;;;4.83;;
77571;SDS011;67214;47.454;18.966;2023-05-10T03:33:24;6.58;;;4.62;;
77571;SDS011;67214;47.454;18.966;2023-05-10T03:35:52;7.87;;;4.75;;
77571;SDS011;67214;47.454;18.966;2023-05-10T03:38:19;5.42;;;4.47;;
77571;SDS011;67214;47.454;18.966;2023-05-10T03:40:47;8.25;;;5.20;;
77571;SDS011;67214;47.454;18.966;2023-05-10T03:43:14;6.03;;;4.62;;
77571;SDS011;67214;47.454;18.966;2023-05-10T03:45:41;6.55;;;4.87;;
77571;SDS011;67214;47.454;18.966;2023-05-10T03:48:09;6.47;;;4.95;;
77571;SDS011;67214;47.454;18.966;2023-05-10T03:50:38;9.78;;;5.72;;
77571;SDS011;67214;47.454;18.966;2023-05-10T03:53:06;8.80;;;5.03;;
77571;SDS011;67214;47.454;18.966;2023-05-10T03:55:33;9.33;;;4.90;;
77571;SDS011;67214;47.454;18.966;2023-05-10T03:58:01;7.00;;;5.03;;
77571;SDS011;67214;47.454;18.966;2023-05-10T04:00:29;8.70;;;4.87;;
77571;SDS011;67214;47.454;18.966;2023-05-10T04:02:57;8.15;;;6.05;;
77571;SDS011;67214;47.454;18.966;2023-05-10T04:05:24;9.30;;;4.60;;
77571;SDS011;67214;47.454;18.966;2023-05-10T04:07:52;7.97;;;4.42;;
77571;SDS011;67214;47.454;18.966;2023-05-10T04:10:19;7.28;;;5.67;;
77571;SDS011;67214;47.454;18.966;2023-05-10T04:12:47;6.10;;;5.22;;
77571;SDS011;67214;47.454;18.966;2023-05-10T04:15:14;6.85;;;5.67;;
77571;SDS011;67214;47.454;18.966;2023-05-10T04:17:42;7.22;;;5.60;;
77571;SDS011;67214;47.454;18.966;2023-05-10T04:20:09;6.87;;;5.62;;
77571;SDS011;67214;47.454;18.966;2023-05-10T04:22:37;9.30;;;5.20;;
77571;SDS011;67214;47.454;18.966;2023-05-10T04:25:05;7.37;;;6.42;;
77571;SDS011;67214;47.454;18.966;2023-05-10T04:27:33;6.78;;;5.33;;
77571;SDS011;67214;47.454;18.966;2023-05-10T04:30:00;8.88;;;5.28;;
77571;SDS011;67214;47.454;18.966;2023-05-10T04:32:28;6.75;;;6.03;;
77571;SDS011;67214;47.454;18.966;2023-05-10T04:34:56;8.85;;;5.37;;
77571;SDS011;67214;47.454;18.966;2023-05-10T04:37:24;7.10;;;5.15;;
77571;SDS011;67214;47.454;18.966;2023-05-10T04:39:51;8.18;;;4.97;;
77571;SDS011;67214;47.454;18.966;2023-05-10T04:42:19;7.60;;;5.30;;
77571;SDS011;67214;47.454;18.966;2023-05-10T04:44:46;7.55;;;5.12;;
77571;SDS011;67214;47.454;18.966;2023-05-10T04:47:13;7.90;;;5.60;;
77571;SDS011;67214;47.454;18.966;2023-05-10T04:49:41;7.25;;;5.62;;
77571;SDS011;67214;47.454;18.966;2023-05-10T04:52:09;6.92;;;5.53;;
77571;SDS011;67214;47.454;18.966;2023-05-10T04:54:37;6.85;;;5.87;;
77571;SDS011;67214;47.454;18.966;2023-05-10T04:57:04;7.10;;;4.87;;
77571;SDS011;67214;47.454;18.966;2023-05-10T04:59:31;8.70;;;5.50;;
77571;SDS011;67214;47.454;18.966;2023-05-10T05:01:59;9.35;;;5.85;;
77571;SDS011;67214;47.454;18.966;2023-05-10T05:04:26;9.35;;;5.58;;
77571;SDS011;67214;47.454;18.966;2023-05-10T05:06:54;5.65;;;4.87;;
77571;SDS011;67214;47.454;18.966;2023-05-10T05:09:21;6.85;;;5.65;;
77571;SDS011;67214;47.454;18.966;2023-05-10T05:11:49;8.98;;;5.75;;
77571;SDS011;67214;47.454;18.966;2023-05-10T05:14:16;11.97;;;5.55;;
77571;SDS011;67214;47.454;18.966;2023-05-10T05:16:45;7.97;;;5.15;;
77571;SDS011;67214;47.454;18.966;2023-05-10T05:19:13;8.63;;;5.70;;
77571;SDS011;67214;47.454;18.966;2023-05-10T05:21:41;10.95;;;5.55;;
77571;SDS011;67214;47.454;18.966;2023-05-10T05:24:08;10.78;;;5.78;;
77571;SDS011;67214;47.454;18.966;2023-05-10T05:26:38;8.83;;;5.40;;
77571;SDS011;67214;47.454;18.966;2023-05-10T05:29:05;7.62;;;5.47;;
77571;SDS011;67214;47.454;18.966;2023-05-10T05:31:33;8.25;;;6.28;;
77571;SDS011;67214;47.454;18.966;2023-05-10T05:34:00;7.58;;;5.35;;
77571;SDS011;67214;47.454;18.966;2023-05-10T05:36:28;8.23;;;5.75;;
77571;SDS011;67214;47.454;18.966;2023-05-10T05:38:57;11.95;;;5.35;;
77571;SDS011;67214;47.454;18.966;2023-05-10T05:41:24;10.35;;;5.50;;
77571;SDS011;67214;47.454;18.966;2023-05-10T05:43:52;9.75;;;5.95;;
77571;SDS011;67214;47.454;18.966;2023-05-10T05:46:19;6.25;;;5.10;;
77571;SDS011;67214;47.454;18.966;2023-05-10T05:48:46;9.68;;;5.20;;
77571;SDS011;67214;47.454;18.966;2023-05-10T05:51:14;12.63;;;6.22;;
77571;SDS011;67214;47.454;18.966;2023-05-10T05:53:41;7.30;;;4.97;;
77571;SDS011;67214;47.454;18.966;2023-05-10T05:56:09;6.28;;;5.22;;
77571;SDS011;67214;47.454;18.966;2023-05-10T05:58:36;7.55;;;4.87;;
77571;SDS011;67214;47.454;18.966;2023-05-10T06:01:03;8.40;;;5.15;;
77571;SDS011;67214;47.454;18.966;2023-05-10T06:03:31;7.50;;;5.08;;
77571;SDS011;67214;47.454;18.966;2023-05-10T06:06:00;9.48;;;5.40;;
77571;SDS011;67214;47.454;18.966;2023-05-10T06:08:27;8.63;;;5.37;;
77571;SDS011;67214;47.454;18.966;2023-05-10T06:10:55;9.83;;;5.85;;
77571;SDS011;67214;47.454;18.966;2023-05-10T06:13:23;8.50;;;4.95;;
77571;SDS011;67214;47.454;18.966;2023-05-10T06:15:50;5.40;;;4.62;;
77571;SDS011;67214;47.454;18.966;2023-05-10T06:18:17;10.40;;;4.87;;
77571;SDS011;67214;47.454;18.966;2023-05-10T06:20:45;5.83;;;4.95;;
77571;SDS011;67214;47.454;18.966;2023-05-10T06:23:12;5.92;;;4.08;;
77571;SDS011;67214;47.454;18.966;2023-05-10T06:25:40;7.17;;;4.35;;
77571;SDS011;67214;47.454;18.966;2023-05-10T06:28:07;7.17;;;5.62;;
77571;SDS011;67214;47.454;18.966;2023-05-10T06:30:35;5.50;;;4.80;;
77571;SDS011;67214;47.454;18.966;2023-05-10T06:33:03;6.60;;;4.55;;
77571;SDS011;67214;47.454;18.966;2023-05-10T06:35:30;13.48;;;5.17;;
77571;SDS011;67214;47.454;18.966;2023-05-10T06:37:59;6.17;;;4.87;;
77571;SDS011;67214;47.454;18.966;2023-05-10T06:40:26;5.90;;;4.50;;
77571;SDS011;67214;47.454;18.966;2023-05-10T06:42:54;7.40;;;4.87;;
77571;SDS011;67214;47.454;18.966;2023-05-10T06:45:21;10.10;;;5.25;;
77571;SDS011;67214;47.454;18.966;2023-05-10T06:47:48;7.55;;;5.47;;
77571;SDS011;67214;47.454;18.966;2023-05-10T06:50:16;9.40;;;6.10;;
77571;SDS011;67214;47.454;18.966;2023-05-10T06:52:43;6.87;;;5.15;;
77571;SDS011;67214;47.454;18.966;2023-05-10T06:55:11;8.30;;;4.80;;
77571;SDS011;67214;47.454;18.966;2023-05-10T06:57:38;8.35;;;5.08;;
77571;SDS011;67214;47.454;18.966;2023-05-10T07:00:06;5.28;;;4.78;;
77571;SDS011;67214;47.454;18.966;2023-05-10T07:02:35;6.67;;;4.70;;
77571;SDS011;67214;47.454;18.966;2023-05-10T07:05:02;7.30;;;4.50;;
77571;SDS011;67214;47.454;18.966;2023-05-10T07:07:30;5.75;;;4.03;;
77571;SDS011;67214;47.454;18.966;2023-05-10T07:09:57;10.03;;;4.70;;
77571;SDS011;67214;47.454;18.966;2023-05-10T07:12:25;5.83;;;4.30;;
77571;SDS011;67214;47.454;18.966;2023-05-10T07:14:53;7.70;;;4.67;;
77571;SDS011;67214;47.454;18.966;2023-05-10T07:17:21;7.50;;;4.03;;
77571;SDS011;67214;47.454;18.966;2023-05-10T07:19:48;7.72;;;4.62;;
77571;SDS011;67214;47.454;18.966;2023-05-10T07:22:16;7.85;;;4.22;;
77571;SDS011;67214;47.454;18.966;2023-05-10T07:24:44;5.20;;;4.05;;
77571;SDS011;67214;47.454;18.966;2023-05-10T07:27:11;7.60;;;4.03;;
77571;SDS011;67214;47.454;18.966;2023-05-10T07:29:39;6.15;;;4.03;;
77571;SDS011;67214;47.454;18.966;2023-05-10T07:32:06;7.83;;;4.40;;
77571;SDS011;67214;47.454;18.966;2023-05-10T07:34:34;4.03;;;3.35;;
77571;SDS011;67214;47.454;18.966;2023-05-10T07:37:01;6.15;;;4.42;;
77571;SDS011;67214;47.454;18.966;2023-05-10T07:39:29;5.10;;;3.92;;
77571;SDS011;67214;47.454;18.966;2023-05-10T07:41:57;6.67;;;4.50;;
77571;SDS011;67214;47.454;18.966;2023-05-10T07:44:24;8.80;;;4.10;;
77571;SDS011;67214;47.454;18.966;2023-05-10T07:46:52;5.22;;;3.98;;
77571;SDS011;67214;47.454;18.966;2023-05-10T07:49:19;6.42;;;3.70;;
77571;SDS011;67214;47.454;18.966;2023-05-10T07:51:46;5.65;;;3.95;;
77571;SDS011;67214;47.454;18.966;2023-05-10T07:54:14;5.75;;;4.22;;
77571;SDS011;67214;47.454;18.966;2023-05-10T07:56:42;9.20;;;4.45;;
77571;SDS011;67214;47.454;18.966;2023-05-10T07:59:14;9.23;;;4.53;;
77571;SDS011;67214;47.454;18.966;2023-05-10T08:01:43;6.83;;;4.40;;
77571;SDS011;67214;47.454;18.966;2023-05-10T08:04:11;8.00;;;4.37;;
77571;SDS011;67214;47.454;18.966;2023-05-10T08:06:39;5.42;;;3.80;;
77571;SDS011;67214;47.454;18.966;2023-05-10T08:09:07;7.05;;;3.62;;
77571;SDS011;67214;47.454;18.966;2023-05-10T08:11:35;5.80;;;3.60;;
77571;SDS011;67214;47.454;18.966;2023-05-10T08:14:02;4.17;;;3.72;;
77571;SDS011;67214;47.454;18.966;2023-05-10T08:16:30;10.40;;;4.45;;
77571;SDS011;67214;47.454;18.966;2023-05-10T08:18:57;4.45;;;3.75;;
77571;SDS011;67214;47.454;18.966;2023-05-10T08:21:25;6.97;;;4.08;;
77571;SDS011;67214;47.454;18.966;2023-05-10T08:23:52;5.05;;;4.08;;
77571;SDS011;67214;47.454;18.966;2023-05-10T08:26:20;5.95;;;4.25;;
77571;SDS011;67214;47.454;18.966;2023-05-10T08:28:47;8.65;;;3.65;;
77571;SDS011;67214;47.454;18.966;2023-05-10T08:31:15;6.00;;;3.92;;
77571;SDS011;67214;47.454;18.966;2023-05-10T08:33:43;7.00;;;3.70;;
77571;SDS011;67214;47.454;18.966;2023-05-10T08:36:11;7.30;;;3.92;;
77571;SDS011;67214;47.454;18.966;2023-05-10T08:38:39;5.15;;;4.15;;
77571;SDS011;67214;47.454;18.966;2023-05-10T08:41:07;6.85;;;4.05;;
77571;SDS011;67214;47.454;18.966;2023-05-10T08:43:36;7.33;;;4.10;;
77571;SDS011;67214;47.454;18.966;2023-05-10T08:46:07;5.92;;;3.70;;
77571;SDS011;67214;47.454;18.966;2023-05-10T08:48:35;6.58;;;3.70;;
77571;SDS011;67214;47.454;18.966;2023-05-10T08:51:06;4.30;;;3.70;;
77571;SDS011;67214;47.454;18.966;2023-05-10T08:53:35;6.05;;;3.47;;
77571;SDS011;67214;47.454;18.966;2023-05-10T08:56:04;3.95;;;3.50;;
77571;SDS011;67214;47.454;18.966;2023-05-10T08:58:31;10.55;;;4.30;;
77571;SDS011;67214;47.454;18.966;2023-05-10T09:00:59;5.12;;;3.15;;
77571;SDS011;67214;47.454;18.966;2023-05-10T09:03:28;5.50;;;3.52;;
77571;SDS011;67214;47.454;18.966;2023-05-10T09:05:56;12.88;;;3.80;;
77571;SDS011;67214;47.454;18.966;2023-05-10T09:08:25;4.75;;;3.87;;
77571;SDS011;67214;47.454;18.966;2023-05-10T09:10:59;4.70;;;3.50;;
77571;SDS011;67214;47.454;18.966;2023-05-10T09:13:22;5.55;;;3.50;;
77571;SDS011;67214;47.454;18.966;2023-05-10T09:15:51;3.87;;;3.20;;
77571;SDS011;67214;47.454;18.966;2023-05-10T09:18:19;4.92;;;3.70;;
77571;SDS011;67214;47.454;18.966;2023-05-10T09:20:47;6.58;;;3.27;;
77571;SDS011;67214;47.454;18.966;2023-05-10T09:23:15;5.53;;;3.90;;
77571;SDS011;67214;47.454;18.966;2023-05-10T09:25:42;4.97;;;3.33;;
77571;SDS011;67214;47.454;18.966;2023-05-10T09:28:10;4.17;;;3.50;;
77571;SDS011;67214;47.454;18.966;2023-05-10T09:30:38;6.00;;;3.40;;
77571;SDS011;67214;47.454;18.966;2023-05-10T09:33:05;4.92;;;3.00;;
77571;SDS011;67214;47.454;18.966;2023-05-10T09:35:33;3.70;;;3.10;;
77571;SDS011;67214;47.454;18.966;2023-05-10T09:38:07;6.42;;;3.50;;
77571;SDS011;67214;47.454;18.966;2023-05-10T09:40:31;5.60;;;3.58;;
77571;SDS011;67214;47.454;18.966;2023-05-10T09:42:59;6.33;;;3.50;;
77571;SDS011;67214;47.454;18.966;2023-05-10T09:45:29;4.10;;;3.70;;
77571;SDS011;67214;47.454;18.966;2023-05-10T09:47:58;4.70;;;3.25;;
77571;SDS011;67214;47.454;18.966;2023-05-10T09:50:28;6.37;;;3.33;;
77571;SDS011;67214;47.454;18.966;2023-05-10T09:52:57;10.08;;;3.58;;
77571;SDS011;67214;47.454;18.966;2023-05-10T09:55:41;6.28;;;3.20;;
77571;SDS011;67214;47.454;18.966;2023-05-10T09:58:11;5.70;;;3.10;;
77571;SDS011;67214;47.454;18.966;2023-05-10T10:00:40;5.97;;;3.22;;
77571;SDS011;67214;47.454;18.966;2023-05-10T10:03:18;4.87;;;3.80;;
77571;SDS011;67214;47.454;18.966;2023-05-10T10:05:48;4.33;;;3.50;;
77571;SDS011;67214;47.454;18.966;2023-05-10T10:08:17;6.35;;;3.22;;
77571;SDS011;67214;47.454;18.966;2023-05-10T10:10:44;4.75;;;3.02;;
77571;SDS011;67214;47.454;18.966;2023-05-10T10:13:13;5.92;;;3.12;;
77571;SDS011;67214;47.454;18.966;2023-05-10T10:15:42;5.65;;;2.75;;
77571;SDS011;67214;47.454;18.966;2023-05-10T10:18:14;16.32;;;4.20;;
77571;SDS011;67214;47.454;18.966;2023-05-10T10:20:42;4.50;;;2.92;;
77571;SDS011;67214;47.454;18.966;2023-05-10T10:23:10;5.25;;;3.27;;
77571;SDS011;67214;47.454;18.966;2023-05-10T10:25:37;3.30;;;3.00;;
77571;SDS011;67214;47.454;18.966;2023-05-10T10:30:43;4.72;;;3.58;;
77571;SDS011;67214;47.454;18.966;2023-05-10T10:36:07;4.20;;;2.50;;
77571;SDS011;67214;47.454;18.966;2023-05-10T10:49:30;3.87;;;2.58;;
77571;SDS011;67214;47.454;18.966;2023-05-10T10:54:53;3.37;;;2.42;;
77571;SDS011;67214;47.454;18.966;2023-05-10T10:57:33;6.30;;;2.95;;
77571;SDS011;67214;47.454;18.966;2023-05-10T11:00:18;3.00;;;2.25;;
77571;SDS011;67214;47.454;18.966;2023-05-10T11:10:50;2.58;;;2.27;;
77571;SDS011;67214;47.454;18.966;2023-05-10T11:13:26;4.53;;;2.50;;
77571;SDS011;67214;47.454;18.966;2023-05-10T11:15:58;4.95;;;2.70;;
77571;SDS011;67214;47.454;18.966;2023-05-10T11:18:28;4.78;;;2.17;;
77571;SDS011;67214;47.454;18.966;2023-05-10T11:21:00;5.30;;;2.37;;
77571;SDS011;67214;47.454;18.966;2023-05-10T11:23:31;3.45;;;2.37;;
77571;SDS011;67214;47.454;18.966;2023-05-10T11:26:00;4.60;;;2.40;;
77571;SDS011;67214;47.454;18.966;2023-05-10T11:28:28;3.55;;;2.00;;
77571;SDS011;67214;47.454;18.966;2023-05-10T11:30:55;4.95;;;2.72;;
77571;SDS011;67214;47.454;18.966;2023-05-10T11:33:24;4.87;;;2.87;;
77571;SDS011;67214;47.454;18.966;2023-05-10T11:35:51;3.67;;;2.25;;
77571;SDS011;67214;47.454;18.966;2023-05-10T11:38:18;5.50;;;2.50;;
77571;SDS011;67214;47.454;18.966;2023-05-10T11:40:46;6.67;;;2.50;;
77571;SDS011;67214;47.454;18.966;2023-05-10T11:43:15;3.47;;;2.20;;
77571;SDS011;67214;47.454;18.966;2023-05-10T11:45:42;4.60;;;2.22;;
77571;SDS011;67214;47.454;18.966;2023-05-10T11:48:11;4.62;;;1.92;;
77571;SDS011;67214;47.454;18.966;2023-05-10T11:50:38;5.05;;;1.80;;
77571;SDS011;67214;47.454;18.966;2023-05-10T11:53:06;2.87;;;1.95;;
77571;SDS011;67214;47.454;18.966;2023-05-10T11:55:34;2.62;;;1.70;;
77571;SDS011;67214;47.454;18.966;2023-05-10T11:58:01;6.70;;;2.08;;
77571;SDS011;67214;47.454;18.966;2023-05-10T12:00:29;2.65;;;2.00;;
77571;SDS011;67214;47.454;18.966;2023-05-10T12:02:57;3.92;;;1.98;;
77571;SDS011;67214;47.454;18.966;2023-05-10T12:05:25;5.05;;;2.08;;
77571;SDS011;67214;47.454;18.966;2023-05-10T12:07:52;3.65;;;2.08;;
77571;SDS011;67214;47.454;18.966;2023-05-10T12:10:25;4.28;;;2.08;;
77571;SDS011;67214;47.454;18.966;2023-05-10T12:12:52;2.98;;;2.20;;
77571;SDS011;67214;47.454;18.966;2023-05-10T12:15:21;4.12;;;2.55;;
77571;SDS011;67214;47.454;18.966;2023-05-10T12:17:50;4.85;;;1.95;;
77571;SDS011;67214;47.454;18.966;2023-05-10T12:20:18;4.30;;;2.00;;
77571;SDS011;67214;47.454;18.966;2023-05-10T12:22:51;6.40;;;2.65;;
77571;SDS011;67214;47.454;18.966;2023-05-10T12:25:23;5.17;;;2.55;;
77571;SDS011;67214;47.454;18.966;2023-05-10T12:27:54;2.70;;;1.70;;
77571;SDS011;67214;47.454;18.966;2023-05-10T12:30:22;2.55;;;1.90;;
77571;SDS011;67214;47.454;18.966;2023-05-10T12:32:51;5.95;;;2.20;;
77571;SDS011;67214;47.454;18.966;2023-05-10T12:35:20;2.58;;;2.37;;
77571;SDS011;67214;47.454;18.966;2023-05-10T12:37:50;6.08;;;2.15;;
77571;SDS011;67214;47.454;18.966;2023-05-10T12:40:18;7.67;;;2.40;;
77571;SDS011;67214;47.454;18.966;2023-05-10T12:42:45;4.45;;;1.82;;
77571;SDS011;67214;47.454;18.966;2023-05-10T12:45:14;3.52;;;2.15;;
77571;SDS011;67214;47.454;18.966;2023-05-10T12:47:41;6.85;;;2.10;;
77571;SDS011;67214;47.454;18.966;2023-05-10T12:50:09;3.58;;;2.10;;
77571;SDS011;67214;47.454;18.966;2023-05-10T12:52:37;3.12;;;2.10;;
77571;SDS011;67214;47.454;18.966;2023-05-10T12:55:04;2.87;;;1.90;;
77571;SDS011;67214;47.454;18.966;2023-05-10T12:57:32;10.23;;;3.98;;
77571;SDS011;67214;47.454;18.966;2023-05-10T12:59:59;6.17;;;2.20;;
77571;SDS011;67214;47.454;18.966;2023-05-10T13:02:26;4.75;;;2.15;;
77571;SDS011;67214;47.454;18.966;2023-05-10T13:04:54;5.10;;;1.92;;
77571;SDS011;67214;47.454;18.966;2023-05-10T13:07:22;5.45;;;1.92;;
77571;SDS011;67214;47.454;18.966;2023-05-10T13:09:49;17.27;;;2.20;;
77571;SDS011;67214;47.454;18.966;2023-05-10T13:12:17;5.42;;;1.62;;
77571;SDS011;67214;47.454;18.966;2023-05-10T13:14:44;5.60;;;2.30;;
77571;SDS011;67214;47.454;18.966;2023-05-10T13:17:11;2.98;;;1.87;;
77571;SDS011;67214;47.454;18.966;2023-05-10T13:19:39;2.80;;;1.50;;
77571;SDS011;67214;47.454;18.966;2023-05-10T13:22:06;2.30;;;1.62;;
77571;SDS011;67214;47.454;18.966;2023-05-10T13:24:34;3.52;;;1.65;;
77571;SDS011;67214;47.454;18.966;2023-05-10T13:27:01;8.55;;;2.22;;
77571;SDS011;67214;47.454;18.966;2023-05-10T13:29:29;4.95;;;1.80;;
77571;SDS011;67214;47.454;18.966;2023-05-10T13:31:57;3.25;;;1.60;;
77571;SDS011;67214;47.454;18.966;2023-05-10T13:34:25;2.22;;;1.70;;
77571;SDS011;67214;47.454;18.966;2023-05-10T13:36:53;2.77;;;1.42;;
77571;SDS011;67214;47.454;18.966;2023-05-10T13:39:21;6.42;;;1.52;;
77571;SDS011;67214;47.454;18.966;2023-05-10T13:41:49;3.05;;;1.90;;
77571;SDS011;67214;47.454;18.966;2023-05-10T13:44:19;3.77;;;1.70;;
77571;SDS011;67214;47.454;18.966;2023-05-10T13:46:47;12.60;;;2.30;;
77571;SDS011;67214;47.454;18.966;2023-05-10T13:49:15;2.52;;;1.50;;
77571;SDS011;67214;47.454;18.966;2023-05-10T13:51:43;3.30;;;1.87;;
77571;SDS011;67214;47.454;18.966;2023-05-10T13:54:10;3.40;;;1.80;;
77571;SDS011;67214;47.454;18.966;2023-05-10T13:56:38;3.83;;;1.87;;
77571;SDS011;67214;47.454;18.966;2023-05-10T13:59:06;5.67;;;2.40;;
77571;SDS011;67214;47.454;18.966;2023-05-10T14:01:35;3.08;;;1.80;;
77571;SDS011;67214;47.454;18.966;2023-05-10T14:04:03;2.17;;;1.75;;
77571;SDS011;67214;47.454;18.966;2023-05-10T14:06:31;5.28;;;2.02;;
77571;SDS011;67214;47.454;18.966;2023-05-10T14:09:00;3.35;;;1.50;;
77571;SDS011;67214;47.454;18.966;2023-05-10T14:11:28;6.60;;;1.87;;
77571;SDS011;67214;47.454;18.966;2023-05-10T14:13:56;2.27;;;1.60;;
77571;SDS011;67214;47.454;18.966;2023-05-10T14:16:23;6.92;;;1.60;;
77571;SDS011;67214;47.454;18.966;2023-05-10T14:18:51;4.75;;;2.15;;
77571;SDS011;67214;47.454;18.966;2023-05-10T14:21:19;4.03;;;1.40;;
77571;SDS011;67214;47.454;18.966;2023-05-10T14:23:46;2.05;;;1.42;;
77571;SDS011;67214;47.454;18.966;2023-05-10T14:26:14;3.85;;;1.70;;
77571;SDS011;67214;47.454;18.966;2023-05-10T14:28:42;4.33;;;1.60;;
77571;SDS011;67214;47.454;18.966;2023-05-10T14:31:09;4.90;;;1.45;;
77571;SDS011;67214;47.454;18.966;2023-05-10T14:33:37;4.58;;;1.57;;
77571;SDS011;67214;47.454;18.966;2023-05-10T14:36:05;1.92;;;1.40;;
77571;SDS011;67214;47.454;18.966;2023-05-10T14:38:34;6.28;;;1.72;;
77571;SDS011;67214;47.454;18.966;2023-05-10T14:41:01;3.02;;;1.67;;
77571;SDS011;67214;47.454;18.966;2023-05-10T14:43:28;4.90;;;1.50;;
77571;SDS011;67214;47.454;18.966;2023-05-10T14:45:56;3.25;;;1.40;;
77571;SDS011;67214;47.454;18.966;2023-05-10T14:48:23;3.58;;;1.92;;
77571;SDS011;67214;47.454;18.966;2023-05-10T14:50:51;3.20;;;1.77;;
77571;SDS011;67214;47.454;18.966;2023-05-10T14:53:18;3.85;;;1.55;;
77571;SDS011;67214;47.454;18.966;2023-05-10T14:55:49;3.00;;;1.72;;
77571;SDS011;67214;47.454;18.966;2023-05-10T14:58:16;6.70;;;1.98;;
77571;SDS011;67214;47.454;18.966;2023-05-10T15:00:44;2.77;;;1.77;;
77571;SDS011;67214;47.454;18.966;2023-05-10T15:03:11;3.02;;;1.75;;
77571;SDS011;67214;47.454;18.966;2023-05-10T15:05:39;3.50;;;1.87;;
77571;SDS011;67214;47.454;18.966;2023-05-10T15:08:06;3.72;;;1.85;;
77571;SDS011;67214;47.454;18.966;2023-05-10T15:10:35;3.12;;;1.52;;
77571;SDS011;67214;47.454;18.966;2023-05-10T15:13:03;2.45;;;1.60;;
77571;SDS011;67214;47.454;18.966;2023-05-10T15:15:31;5.65;;;1.70;;
77571;SDS011;67214;47.454;18.966;2023-05-10T15:17:58;8.33;;;1.77;;
77571;SDS011;67214;47.454;18.966;2023-05-10T15:20:27;5.25;;;1.67;;
77571;SDS011;67214;47.454;18.966;2023-05-10T15:22:54;3.70;;;1.37;;
77571;SDS011;67214;47.454;18.966;2023-05-10T15:25:22;5.30;;;1.60;;
77571;SDS011;67214;47.454;18.966;2023-05-10T15:27:49;7.37;;;2.08;;